createdAt,value
2023-05-18T00:02:00.694Z,100971.83
2023-05-18T00:05:08.815Z,100971.84
2023-05-18T00:08:16.830Z,100975.16
2023-05-18T00:11:24.515Z,100967.77
2023-05-18T00:14:30.787Z,100969.52
2023-05-18T00:17:38.261Z,100966.77
2023-05-18T00:20:45.925Z,100968.84
2023-05-18T00:23:53.435Z,100959.06
2023-05-18T00:27:01.066Z,100957.88
2023-05-18T00:30:06.208Z,100956.05
2023-05-18T00:33:12.359Z,100946.61
2023-05-18T00:36:18.917Z,100938.86
2023-05-18T00:39:24.910Z,100940.42
2023-05-18T00:42:31.278Z,100932.53
2023-05-18T00:45:38.195Z,100929.64
2023-05-18T00:48:43.291Z,100925.02
2023-05-18T00:51:49.881Z,100932.08
2023-05-18T00:54:57.319Z,100922.45
2023-05-18T00:58:04.130Z,100924.19
2023-05-18T01:01:12.491Z,100921.95
2023-05-18T01:04:20.549Z,100922.13
2023-05-18T01:07:29.582Z,100929.19
2023-05-18T01:10:36.169Z,100922.50
2023-05-18T01:14:10.337Z,100926.48
2023-05-18T01:17:24.306Z,100920.16
2023-05-18T01:20:56.928Z,100924.11
2023-05-18T01:24:10.727Z,100924.47
2023-05-18T01:27:16.464Z,100922.45
2023-05-18T01:30:24.753Z,100929.69
2023-05-18T01:33:32.622Z,100930.56
2023-05-18T01:36:39.306Z,100927.30
2023-05-18T01:39:45.477Z,100926.62
2023-05-18T01:42:57.830Z,100927.84
2023-05-18T01:46:04.770Z,100922.53
2023-05-18T01:49:15.496Z,100932.34
2023-05-18T01:52:22.340Z,100935.41
2023-05-18T01:55:29.430Z,100936.13
2023-05-18T01:58:35.357Z,100931.14
2023-05-18T02:01:42.187Z,100943.01
2023-05-18T02:04:48.648Z,100941.95
2023-05-18T02:07:56.301Z,100945.21
2023-05-18T02:11:01.945Z,100944.70
2023-05-18T02:14:08.520Z,100949.16
2023-05-18T02:17:13.529Z,100945.21
2023-05-18T02:20:24.176Z,100939.72
2023-05-18T02:23:29.983Z,100944.02
2023-05-18T02:26:36.236Z,100947.63
2023-05-18T02:29:41.440Z,100954.84
2023-05-18T02:32:49.510Z,100958.60
2023-05-18T02:35:54.753Z,100952.09
2023-05-18T02:39:01.936Z,100952.41
2023-05-18T02:42:09.311Z,100956.86
2023-05-18T02:45:16.399Z,100968.91
2023-05-18T02:48:22.278Z,100968.19
2023-05-18T02:51:28.645Z,100974.20
2023-05-18T02:54:35.100Z,100971.08
2023-05-18T02:57:43.347Z,100973.83
2023-05-18T03:00:50.217Z,100977.23
2023-05-18T03:04:00.263Z,100977.73
2023-05-18T03:07:08.781Z,100973.25
2023-05-18T03:10:18.459Z,100979.40
2023-05-18T03:13:24.485Z,100976.64
2023-05-18T03:16:32.546Z,100980.55
2023-05-18T03:19:42.576Z,100980.69
2023-05-18T03:22:49.411Z,100984.77
2023-05-18T03:25:58.143Z,100990.40
2023-05-18T03:29:03.089Z,100990.53
2023-05-18T03:32:08.921Z,100994.28
2023-05-18T03:35:15.425Z,100999.05
2023-05-18T03:38:22.376Z,100996.75
2023-05-18T03:41:29.168Z,101002.20
2023-05-18T03:44:38.129Z,101000.79
2023-05-18T03:47:44.101Z,101008.11
2023-05-18T03:50:50.011Z,101007.98
2023-05-18T03:53:57.770Z,101001.16
2023-05-18T03:56:58.119Z,100996.06
2023-05-18T03:59:50.897Z,100995.95
2023-05-18T04:02:58.688Z,100989.97
2023-05-18T04:06:05.266Z,100995.02
2023-05-18T04:09:13.178Z,100999.86
2023-05-18T04:12:21.233Z,101002.27
2023-05-18T04:15:27.062Z,101005.44
2023-05-18T04:18:35.053Z,101006.13
2023-05-18T04:21:43.357Z,101002.01
2023-05-18T04:24:53.022Z,101002.53
2023-05-18T04:28:00.315Z,101007.86
2023-05-18T04:31:08.970Z,101005.56
2023-05-18T04:34:08.517Z,101008.80
2023-05-18T04:37:04.817Z,101011.17
2023-05-18T04:40:12.091Z,101013.96
2023-05-18T04:43:19.278Z,101014.60
2023-05-18T04:46:26.339Z,101011.64
2023-05-18T04:49:34.775Z,101009.51
2023-05-18T04:52:43.622Z,101009.58
2023-05-18T04:55:50.166Z,101012.97
2023-05-18T04:58:55.914Z,101014.65
2023-05-18T05:02:02.457Z,101020.79
2023-05-18T05:05:08.115Z,101012.60
2023-05-18T05:08:15.635Z,101018.31
2023-05-18T05:11:22.315Z,101022.33
2023-05-18T05:14:29.351Z,101027.41
2023-05-18T05:17:37.386Z,101017.86
2023-05-18T05:20:43.785Z,101012.88
2023-05-18T05:23:52.191Z,101014.83
2023-05-18T05:26:57.834Z,101013.37
2023-05-18T05:30:03.176Z,101018.94
2023-05-18T05:33:10.935Z,101017.88
2023-05-18T05:36:19.550Z,101017.36
2023-05-18T05:39:28.940Z,101019.06
2023-05-18T05:42:37.536Z,101011.77
2023-05-18T05:45:45.482Z,101014.31
2023-05-18T05:49:08.770Z,101014.86
2023-05-18T05:52:14.981Z,101017.27
2023-05-18T05:55:22.820Z,101011.67
2023-05-18T05:58:30.021Z,101009.61
2023-05-18T06:01:35.468Z,101012.64
2023-05-18T06:04:43.337Z,101008.41
2023-05-18T06:07:52.418Z,101011.77
2023-05-18T06:10:58.710Z,101009.03
2023-05-18T06:14:05.047Z,101009.33
2023-05-18T06:17:10.137Z,101008.30
2023-05-18T06:20:16.691Z,101010.13
2023-05-18T06:23:22.849Z,101013.90
2023-05-18T06:26:32.633Z,101012.30
2023-05-18T06:29:42.291Z,101003.86
2023-05-18T06:33:06.581Z,101010.08
2023-05-18T06:36:13.411Z,101010.71
2023-05-18T06:39:18.710Z,101010.41
2023-05-18T06:42:26.249Z,101015.52
2023-05-18T06:45:37.037Z,101004.93
2023-05-18T06:48:45.855Z,100998.48
2023-05-18T06:51:52.424Z,100997.94
2023-05-18T06:55:00.294Z,101001.93
2023-05-18T06:58:06.631Z,101003.59
2023-05-18T07:01:13.761Z,100996.40
2023-05-18T07:04:20.583Z,100990.26
2023-05-18T07:07:27.235Z,100993.30
2023-05-18T07:10:32.816Z,100991.58
2023-05-18T07:13:39.341Z,100991.62
2023-05-18T07:16:47.123Z,100990.52
2023-05-18T07:19:53.677Z,100998.02
2023-05-18T07:23:02.265Z,101001.94
2023-05-18T07:26:08.171Z,100999.95
2023-05-18T07:29:15.022Z,100993.20
2023-05-18T07:32:21.434Z,101002.70
2023-05-18T07:35:27.507Z,100995.41
2023-05-18T07:38:33.293Z,100997.97
2023-05-18T07:41:39.192Z,100989.54
2023-05-18T07:44:44.546Z,100998.66
2023-05-18T07:47:51.363Z,100992.95
2023-05-18T07:50:58.570Z,100995.29
2023-05-18T07:54:05.412Z,100986.53
2023-05-18T07:57:11.274Z,100985.36
2023-05-18T08:00:17.338Z,100982.47
2023-05-18T08:03:22.307Z,100991.26
2023-05-18T08:06:29.571Z,100991.20
2023-05-18T08:09:38.137Z,100993.31
2023-05-18T08:12:47.134Z,100990.98
2023-05-18T08:16:09.915Z,100993.37
2023-05-18T08:19:01.658Z,100993.23
2023-05-18T08:22:09.570Z,100987.52
2023-05-18T08:25:14.617Z,100984.60
2023-05-18T08:28:20.969Z,100992.41
2023-05-18T08:31:29.705Z,100983.15
2023-05-18T08:34:38.150Z,100980.21
2023-05-18T08:37:43.788Z,100971.08
2023-05-18T08:41:04.120Z,100974.91
2023-05-18T08:44:15.219Z,100967.02
2023-05-18T08:47:23.945Z,100968.89
2023-05-18T08:50:29.805Z,100963.29
2023-05-18T08:53:36.297Z,100955.20
2023-05-18T08:56:44.922Z,100949.83
2023-05-18T08:59:55.720Z,100954.83
2023-05-18T09:03:01.296Z,100952.56
2023-05-18T09:06:08.967Z,100952.01
2023-05-18T09:09:16.439Z,100946.42
2023-05-18T09:12:22.797Z,100948.44
2023-05-18T09:15:32.176Z,100952.88
2023-05-18T09:18:38.167Z,100941.31
2023-05-18T09:21:46.353Z,100940.05
2023-05-18T09:24:52.995Z,100937.38
2023-05-18T09:28:00.279Z,100929.13
2023-05-18T09:31:06.199Z,100929.80
2023-05-18T09:34:14.712Z,100924.31
2023-05-18T09:37:21.439Z,100930.86
2023-05-18T09:40:21.558Z,100930.92
2023-05-18T09:43:09.209Z,100924.76
2023-05-18T09:46:03.142Z,100918.28
2023-05-18T09:48:55.624Z,100919.45
2023-05-18T09:51:47.739Z,100921.70
2023-05-18T09:54:41.239Z,100916.92
2023-05-18T09:57:47.926Z,100921.11
2023-05-18T10:01:02.809Z,100913.54
2023-05-18T10:04:10.205Z,100909.59
2023-05-18T10:07:10.877Z,100912.92
2023-05-18T10:09:59.606Z,100907.25
2023-05-18T10:12:52.401Z,100897.94
2023-05-18T10:15:45.807Z,100904.67
2023-05-18T10:18:52.133Z,100890.79
2023-05-18T10:21:58.386Z,100878.38
2023-05-18T10:25:05.269Z,100887.61
2023-05-18T10:28:12.166Z,100885.97
2023-05-18T10:31:17.821Z,100890.59
2023-05-18T10:34:26.052Z,100888.97
2023-05-18T10:37:33.567Z,100889.27
2023-05-18T10:40:39.635Z,100889.02
2023-05-18T10:43:59.812Z,100881.68
2023-05-18T10:47:08.279Z,100878.56
2023-05-18T10:50:15.660Z,100868.66
2023-05-18T10:53:20.480Z,100862.75
2023-05-18T10:56:26.300Z,100862.23
2023-05-18T10:59:31.562Z,100861.36
2023-05-18T11:02:37.589Z,100850.55
2023-05-18T11:05:43.971Z,100854.37
2023-05-18T11:08:50.577Z,100850.95
2023-05-18T11:12:10.859Z,100847.55
2023-05-18T11:15:17.727Z,100851.31
2023-05-18T11:18:30.346Z,100846.69
2023-05-18T11:21:49.553Z,100846.69
2023-05-18T11:24:56.568Z,100851.20
2023-05-18T11:28:06.695Z,100856.28
2023-05-18T11:31:13.476Z,100848.66
2023-05-18T11:34:23.652Z,100848.92
2023-05-18T11:37:34.013Z,100851.09
2023-05-18T11:41:04.096Z,100852.46
2023-05-18T11:44:30.620Z,100852.46
2023-05-18T11:47:38.148Z,100845.35
2023-05-18T11:50:45.084Z,100840.08
2023-05-18T11:53:49.626Z,100833.72
2023-05-18T11:56:57.009Z,100833.72
2023-05-18T12:00:04.151Z,100827.52
2023-05-18T12:03:14.445Z,100827.52
2023-05-18T12:06:20.621Z,100827.10
2023-05-18T12:09:27.173Z,100823.86
2023-05-18T12:12:33.979Z,100817.45
2023-05-18T12:15:39.953Z,100826.27
2023-05-18T12:18:48.450Z,100831.79
2023-05-18T12:21:58.350Z,100826.13
2023-05-18T12:25:06.302Z,100827.28
2023-05-18T12:28:11.170Z,100824.67
2023-05-18T12:31:17.474Z,100829.80
2023-05-18T12:34:25.683Z,100836.03
2023-05-18T12:37:41.673Z,100823.64
2023-05-18T12:40:39.610Z,100823.64
2023-05-18T12:43:50.072Z,100827.59
2023-05-18T12:47:01.210Z,100824.22
2023-05-18T12:50:06.584Z,100817.73
2023-05-18T12:53:13.256Z,100816.55
2023-05-18T12:56:24.981Z,100809.19
2023-05-18T12:59:41.041Z,100806.55
2023-05-18T13:02:54.441Z,100806.70
2023-05-18T13:06:02.919Z,100810.09
2023-05-18T13:09:10.456Z,100816.11
2023-05-18T13:12:17.149Z,100803.00
2023-05-18T13:15:36.609Z,100814.34
2023-05-18T13:18:43.652Z,100809.84
2023-05-18T13:21:50.476Z,100806.46
2023-05-18T13:24:56.082Z,100805.60
2023-05-18T13:28:02.784Z,100802.75
2023-05-18T13:31:11.576Z,100799.35
2023-05-18T13:34:16.631Z,100806.99
2023-05-18T13:37:23.136Z,100808.44
2023-05-18T13:40:31.569Z,100801.38
2023-05-18T13:43:39.610Z,100799.67
2023-05-18T13:46:45.535Z,100799.98
2023-05-18T13:49:51.841Z,100789.83
2023-05-18T13:52:58.567Z,100788.64
2023-05-18T13:56:05.235Z,100784.39
2023-05-18T13:59:10.500Z,100789.77
2023-05-18T14:02:18.199Z,100797.95
2023-05-18T14:05:24.647Z,100787.53
2023-05-18T14:08:31.892Z,100792.03
2023-05-18T14:11:41.132Z,100782.49
2023-05-18T14:14:50.113Z,100790.11
2023-05-18T14:17:57.628Z,100783.89
2023-05-18T14:21:05.457Z,100795.42
2023-05-18T14:24:12.562Z,100784.69
2023-05-18T14:27:19.758Z,100780.13
2023-05-18T14:30:28.268Z,100776.98
2023-05-18T14:33:35.101Z,100772.63
2023-05-18T14:36:41.115Z,100768.63
2023-05-18T14:39:48.395Z,100778.53
2023-05-18T14:42:56.098Z,100770.79
2023-05-18T14:46:08.835Z,100771.94
2023-05-18T14:49:09.348Z,100770.20
2023-05-18T14:52:14.953Z,100772.96
2023-05-18T14:55:22.022Z,100776.59
2023-05-18T14:58:28.695Z,100767.09
2023-05-18T15:01:33.906Z,100770.45
2023-05-18T15:04:41.446Z,100771.86
2023-05-18T15:07:48.143Z,100769.37
2023-05-18T15:10:56.937Z,100766.89
2023-05-18T15:14:03.592Z,100771.48
2023-05-18T15:17:08.578Z,100767.30
2023-05-18T15:20:14.377Z,100776.01
2023-05-18T15:23:21.306Z,100767.25
2023-05-18T15:26:28.090Z,100763.04
2023-05-18T15:29:34.386Z,100766.63
2023-05-18T15:32:41.572Z,100761.45
2023-05-18T15:35:48.495Z,100773.69
2023-05-18T15:38:53.998Z,100767.88
2023-05-18T15:42:00.886Z,100771.41
2023-05-18T15:45:06.868Z,100772.44
2023-05-18T15:48:13.230Z,100771.41
2023-05-18T15:51:17.400Z,100773.25
2023-05-18T15:54:23.417Z,100779.78
2023-05-18T15:57:29.361Z,100779.49
2023-05-18T16:00:36.423Z,100778.44
2023-05-18T16:03:43.085Z,100780.46
2023-05-18T16:06:49.430Z,100779.28
2023-05-18T16:09:55.472Z,100779.28
2023-05-18T16:13:04.935Z,100778.94
2023-05-18T16:16:11.606Z,100783.56
2023-05-18T16:19:21.164Z,100775.75
2023-05-18T16:22:27.372Z,100785.12
2023-05-18T16:25:34.410Z,100791.20
2023-05-18T16:28:40.568Z,100800.23
2023-05-18T16:31:46.759Z,100805.31
2023-05-18T16:34:52.749Z,100805.20
2023-05-18T16:38:00.239Z,100810.44
2023-05-18T16:41:06.800Z,100811.11
2023-05-18T16:44:11.536Z,100813.78
2023-05-18T16:47:17.189Z,100812.19
2023-05-18T16:50:23.319Z,100810.33
2023-05-18T16:53:30.583Z,100817.13
2023-05-18T16:56:36.094Z,100824.80
2023-05-18T16:59:42.959Z,100826.02
2023-05-18T17:02:48.088Z,100823.59
2023-05-18T17:05:54.657Z,100822.00
2023-05-18T17:09:10.460Z,100825.95
2023-05-18T17:12:16.319Z,100829.61
2023-05-18T17:15:23.190Z,100826.82
2023-05-18T17:18:29.244Z,100836.27
2023-05-18T17:21:38.700Z,100828.42
2023-05-18T17:24:45.125Z,100838.20
2023-05-18T17:27:51.118Z,100838.50
2023-05-18T17:30:59.595Z,100839.28
2023-05-18T17:34:06.726Z,100842.03
2023-05-18T17:37:13.454Z,100847.60
2023-05-18T17:40:19.968Z,100844.20
2023-05-18T17:43:26.162Z,100851.17
2023-05-18T17:46:31.553Z,100853.02
2023-05-18T17:49:29.732Z,100856.00
2023-05-18T17:52:36.815Z,100863.72
2023-05-18T17:55:42.929Z,100868.92
2023-05-18T17:58:48.761Z,100871.53
2023-05-18T18:01:56.315Z,100871.95
2023-05-18T18:05:02.194Z,100872.39
2023-05-18T18:08:09.684Z,100882.13
2023-05-18T18:11:18.888Z,100878.46
2023-05-18T18:14:25.452Z,100880.96
2023-05-18T18:17:31.321Z,100880.34
2023-05-18T18:20:40.475Z,100881.44
2023-05-18T18:23:46.130Z,100889.30
2023-05-18T18:26:53.287Z,100892.94
2023-05-18T18:29:59.345Z,100894.87
2023-05-18T18:33:04.322Z,100898.67
2023-05-18T18:36:12.235Z,100903.33
2023-05-18T18:39:20.347Z,100899.30
2023-05-18T18:42:26.337Z,100903.27
2023-05-18T18:45:35.009Z,100912.98
2023-05-18T18:48:41.065Z,100914.69
2023-05-18T18:51:40.538Z,100913.88
2023-05-18T18:54:33.967Z,100914.40
2023-05-18T18:57:41.321Z,100917.99
2023-05-18T19:00:48.109Z,100917.44
2023-05-18T19:03:53.254Z,100917.08
2023-05-18T19:07:00.636Z,100914.13
2023-05-18T19:10:06.833Z,100916.47
2023-05-18T19:13:13.748Z,100916.77
2023-05-18T19:16:21.755Z,100914.84
2023-05-18T19:19:31.798Z,100914.59
2023-05-18T19:22:38.562Z,100914.57
2023-05-18T19:25:44.304Z,100911.16
2023-05-18T19:28:59.905Z,100911.20
2023-05-18T19:32:08.827Z,100898.97
2023-05-18T19:35:15.313Z,100894.08
2023-05-18T19:38:21.687Z,100906.62
2023-05-18T19:41:28.040Z,100904.50
2023-05-18T19:44:34.496Z,100906.11
2023-05-18T19:47:40.543Z,100910.27
2023-05-18T19:50:46.717Z,100917.38
2023-05-18T19:53:55.948Z,100915.98
2023-05-18T19:57:02.852Z,100914.93
2023-05-18T20:00:10.526Z,100916.41
2023-05-18T20:03:17.160Z,100918.95
2023-05-18T20:06:24.093Z,100927.38
2023-05-18T20:09:32.970Z,100928.77
2023-05-18T20:12:39.894Z,100926.73
2023-05-18T20:15:46.473Z,100928.02
2023-05-18T20:18:53.091Z,100923.42
2023-05-18T20:22:01.358Z,100926.62
2023-05-18T20:25:09.359Z,100925.10
2023-05-18T20:28:16.843Z,100929.89
2023-05-18T20:31:23.433Z,100929.88
2023-05-18T20:34:31.618Z,100936.16
2023-05-18T20:37:38.034Z,100939.42
2023-05-18T20:40:45.041Z,100942.37
2023-05-18T20:43:51.757Z,100943.42
2023-05-18T20:47:00.894Z,100937.17
2023-05-18T20:50:05.854Z,100937.34
2023-05-18T20:53:10.773Z,100937.14
2023-05-18T20:56:18.875Z,100941.67
2023-05-18T20:59:24.532Z,100940.28
2023-05-18T21:02:32.176Z,100942.25
2023-05-18T21:05:42.140Z,100945.12
2023-05-18T21:08:47.618Z,100942.63
2023-05-18T21:11:54.977Z,100948.25
2023-05-18T21:15:00.188Z,100947.59
2023-05-18T21:18:06.566Z,100940.78
2023-05-18T21:21:12.331Z,100943.95
2023-05-18T21:24:17.884Z,100941.97
2023-05-18T21:27:24.555Z,100942.06
2023-05-18T21:30:29.707Z,100934.91
2023-05-18T21:33:36.791Z,100938.59
2023-05-18T21:36:43.166Z,100944.88
2023-05-18T21:39:49.683Z,100935.05
2023-05-18T21:42:55.657Z,100941.52
2023-05-18T21:46:01.991Z,100940.53
2023-05-18T21:49:08.554Z,100942.67
2023-05-18T21:52:13.104Z,100943.59
2023-05-18T21:55:21.144Z,100942.06
2023-05-18T21:58:27.852Z,100946.88
2023-05-18T22:01:33.069Z,100949.03
2023-05-18T22:04:40.060Z,100952.57
2023-05-18T22:07:47.105Z,100951.84
2023-05-18T22:10:54.923Z,100950.81
2023-05-18T22:14:02.205Z,100945.34
2023-05-18T22:17:09.490Z,100941.60
2023-05-18T22:20:19.143Z,100937.86
2023-05-18T22:23:26.699Z,100936.89
2023-05-18T22:26:35.902Z,100944.20
2023-05-18T22:29:44.272Z,100936.83
2023-05-18T22:32:55.302Z,100938.47
2023-05-18T22:36:00.911Z,100942.88
2023-05-18T22:39:06.846Z,100940.05
2023-05-18T22:42:13.088Z,100941.17
2023-05-18T22:45:20.481Z,100938.80
2023-05-18T22:48:25.510Z,100934.08
2023-05-18T22:51:32.724Z,100927.78
2023-05-18T22:54:38.802Z,100919.54
2023-05-18T22:57:43.941Z,100922.19
2023-05-18T23:00:51.143Z,100923.97
2023-05-18T23:03:58.022Z,100921.97
2023-05-18T23:07:04.344Z,100928.84
2023-05-18T23:10:11.774Z,100940.33
2023-05-18T23:13:18.548Z,100946.09
2023-05-18T23:16:25.557Z,100940.53
2023-05-18T23:19:33.242Z,100940.45
2023-05-18T23:22:39.537Z,100936.35
2023-05-18T23:25:46.185Z,100945.34
2023-05-18T23:28:53.457Z,100939.19
2023-05-18T23:31:59.770Z,100947.31
2023-05-18T23:35:08.157Z,100942.53
2023-05-18T23:38:15.889Z,100937.72
2023-05-18T23:41:21.735Z,100937.25
2023-05-18T23:44:28.968Z,100940.01
2023-05-18T23:47:34.332Z,100938.12
2023-05-18T23:50:39.590Z,100939.81
2023-05-18T23:53:45.333Z,100940.68
2023-05-18T23:56:53.046Z,100936.73
